createdAt,value
2022-12-01T00:01:22.003Z,1.52
2022-12-01T00:03:48.936Z,2.44
2022-12-01T00:06:19.439Z,2.58
2022-12-01T00:09:07.273Z,2.61
2022-12-01T00:11:36.793Z,2.61
2022-12-01T00:14:04.798Z,3.17
2022-12-01T00:16:31.903Z,3.37
2022-12-01T00:18:59.066Z,3.28
2022-12-01T00:21:26.740Z,2.95
2022-12-01T00:23:56.784Z,3.01
2022-12-01T00:26:24.563Z,3.03
2022-12-01T00:28:57.371Z,2.79
2022-12-01T00:31:24.657Z,3.43
2022-12-01T00:33:51.559Z,3.45
2022-12-01T00:36:18.494Z,2.97
2022-12-01T00:38:45.531Z,3.57
2022-12-01T00:41:12.247Z,2.42
2022-12-01T00:43:39.692Z,2.88
2022-12-01T00:46:08.705Z,2.75
2022-12-01T00:48:35.499Z,2.61
2022-12-01T00:51:02.158Z,2.38
2022-12-01T00:53:29.320Z,2.97
2022-12-01T00:55:56.043Z,1.32
2022-12-01T00:58:24.132Z,2.63
2022-12-01T01:01:01.823Z,3.33
2022-12-01T01:03:29.975Z,2.93
2022-12-01T01:06:03.040Z,3.24
2022-12-01T01:08:29.726Z,2.90
2022-12-01T01:11:00.346Z,2.80
2022-12-01T01:13:28.488Z,3.39
2022-12-01T01:16:13.834Z,3.05
2022-12-01T01:18:43.080Z,2.42
2022-12-01T01:21:14.680Z,1.94
2022-12-01T01:23:41.707Z,2.55
2022-12-01T01:26:12.228Z,2.62
2022-12-01T01:28:41.471Z,2.75
2022-12-01T01:31:11.404Z,2.84
2022-12-01T01:33:38.464Z,2.74
2022-12-01T01:36:06.320Z,2.74
2022-12-01T01:38:34.451Z,2.60
2022-12-01T01:41:01.636Z,2.76
2022-12-01T01:43:55.893Z,2.51
2022-12-01T01:46:24.005Z,1.71
2022-12-01T01:49:01.434Z,2.46
2022-12-01T01:51:41.314Z,2.25
2022-12-01T01:54:17.363Z,1.72
2022-12-01T01:56:45.729Z,2.79
2022-12-01T01:59:16.589Z,2.70
2022-12-01T02:01:43.393Z,2.93
2022-12-01T02:04:10.120Z,3.14
2022-12-01T02:06:36.826Z,2.46
2022-12-01T02:09:03.635Z,2.93
2022-12-01T02:11:54.732Z,2.87
2022-12-01T02:14:54.406Z,3.60
2022-12-01T02:17:53.364Z,2.52
2022-12-01T02:20:48.776Z,3.10
2022-12-01T02:23:58.635Z,2.75
2022-12-01T02:27:16.501Z,2.44
2022-12-01T02:29:59.359Z,2.01
2022-12-01T02:33:16.361Z,1.73
2022-12-01T02:35:56.158Z,1.63
2022-12-01T02:38:40.709Z,1.85
2022-12-01T02:41:36.587Z,1.46
2022-12-01T02:44:20.143Z,1.55
2022-12-01T02:47:10.693Z,1.86
2022-12-01T02:49:49.506Z,2.56
2022-12-01T02:52:18.846Z,2.26
2022-12-01T02:54:48.389Z,2.52
2022-12-01T02:57:16.923Z,2.51
2022-12-01T02:59:50.185Z,1.50
2022-12-01T03:02:32.193Z,2.26
2022-12-01T03:05:08.259Z,2.47
2022-12-01T03:08:02.257Z,2.49
2022-12-01T03:10:41.635Z,2.39
2022-12-01T03:13:16.013Z,2.76
2022-12-01T03:16:09.003Z,2.65
2022-12-01T03:18:56.204Z,2.37
2022-12-01T03:21:40.738Z,2.14
2022-12-01T03:24:20.032Z,2.08
2022-12-01T03:26:53.463Z,1.40
2022-12-01T03:29:27.183Z,1.32
2022-12-01T03:32:00.676Z,2.50
2022-12-01T03:34:45.609Z,2.63
2022-12-01T03:37:32.213Z,3.09
2022-12-01T03:40:01.118Z,3.21
2022-12-01T03:42:39.029Z,2.66
2022-12-01T03:45:14.852Z,2.42
2022-12-01T03:47:41.673Z,2.93
2022-12-01T03:50:13.854Z,3.32
2022-12-01T03:52:52.654Z,2.87
2022-12-01T03:55:30.159Z,2.27
2022-12-01T03:58:17.470Z,2.56
2022-12-01T04:00:46.296Z,2.07
2022-12-01T04:03:25.526Z,2.87
2022-12-01T04:05:52.465Z,2.73
2022-12-01T04:08:19.136Z,2.86
2022-12-01T04:10:46.043Z,2.07
2022-12-01T04:13:22.255Z,2.18
2022-12-01T04:15:53.940Z,2.58
2022-12-01T04:18:21.531Z,2.79
2022-12-01T04:20:49.722Z,3.38
2022-12-01T04:23:35.327Z,3.16
2022-12-01T04:26:04.752Z,3.67
2022-12-01T04:28:31.874Z,3.74
2022-12-01T04:30:58.664Z,3.57
2022-12-01T04:33:25.490Z,3.42
2022-12-01T04:36:00.151Z,3.27
2022-12-01T04:38:30.859Z,2.09
2022-12-01T04:40:58.337Z,2.16
2022-12-01T04:43:25.201Z,2.32
2022-12-01T04:45:51.959Z,1.63
2022-12-01T04:48:18.630Z,2.19
2022-12-01T04:50:45.357Z,1.31
2022-12-01T04:53:11.963Z,1.82
2022-12-01T04:55:39.319Z,1.64
2022-12-01T04:58:06.703Z,2.29
2022-12-01T05:00:33.873Z,2.20
2022-12-01T05:03:00.701Z,2.88
2022-12-01T05:05:27.702Z,2.91
2022-12-01T05:07:54.446Z,3.28
2022-12-01T05:10:21.775Z,3.31
2022-12-01T05:12:48.619Z,2.74
2022-12-01T05:15:15.859Z,3.12
2022-12-01T05:17:42.588Z,3.23
2022-12-01T05:20:50.005Z,3.20
2022-12-01T05:23:17.281Z,3.06
2022-12-01T05:25:44.062Z,2.69
2022-12-01T05:28:10.813Z,3.00
2022-12-01T05:30:37.476Z,3.24
2022-12-01T05:33:04.273Z,3.41
2022-12-01T05:35:33.875Z,3.43
2022-12-01T05:38:06.100Z,3.56
2022-12-01T05:40:34.795Z,3.47
2022-12-01T05:43:01.720Z,3.11
2022-12-01T05:45:28.775Z,2.56
2022-12-01T05:47:59.890Z,2.13
2022-12-01T05:50:29.480Z,3.10
2022-12-01T05:52:56.301Z,3.65
2022-12-01T05:55:23.119Z,3.52
2022-12-01T05:57:49.849Z,3.34
2022-12-01T06:00:17.243Z,3.34
2022-12-01T06:02:44.031Z,2.87
2022-12-01T06:05:10.980Z,3.53
2022-12-01T06:07:40.194Z,3.63
2022-12-01T06:10:09.394Z,2.90
2022-12-01T06:12:36.991Z,3.29
2022-12-01T06:15:07.700Z,3.26
2022-12-01T06:17:39.996Z,3.45
2022-12-01T06:20:09.517Z,3.12
2022-12-01T06:22:36.320Z,2.71
2022-12-01T06:25:04.154Z,3.29
2022-12-01T06:27:30.999Z,3.34
2022-12-01T06:29:57.797Z,3.69
2022-12-01T06:32:24.436Z,3.43
2022-12-01T06:34:51.194Z,2.45
2022-12-01T06:37:17.888Z,2.24
2022-12-01T06:39:44.542Z,2.37
2022-12-01T06:42:11.978Z,2.01
2022-12-01T06:44:38.944Z,2.51
2022-12-01T06:47:05.646Z,2.41
2022-12-01T06:49:32.369Z,1.30
2022-12-01T06:52:00.960Z,1.43
2022-12-01T06:54:27.887Z,2.29
2022-12-01T06:56:54.612Z,2.55
2022-12-01T06:59:21.837Z,1.95
2022-12-01T07:01:48.703Z,2.93
2022-12-01T07:04:15.559Z,3.36
2022-12-01T07:06:42.199Z,3.62
2022-12-01T07:09:08.883Z,3.73
2022-12-01T07:11:36.502Z,3.56
2022-12-01T07:14:03.658Z,3.59
2022-12-01T07:16:30.814Z,3.01
2022-12-01T07:19:00.154Z,3.41
2022-12-01T07:21:26.870Z,2.90
2022-12-01T07:23:54.589Z,3.21
2022-12-01T07:26:21.515Z,2.41
2022-12-01T07:28:48.248Z,2.76
2022-12-01T07:31:18.047Z,3.07
2022-12-01T07:33:45.144Z,2.63
2022-12-01T07:36:13.292Z,3.12
2022-12-01T07:38:41.170Z,2.64
2022-12-01T07:41:11.967Z,2.87
2022-12-01T07:43:39.675Z,2.89
2022-12-01T07:46:22.239Z,2.82
2022-12-01T07:48:50.123Z,3.39
2022-12-01T07:51:17.583Z,2.33
2022-12-01T07:53:46.877Z,2.82
2022-12-01T07:56:14.025Z,3.32
2022-12-01T07:58:41.224Z,3.32
2022-12-01T08:01:12.546Z,3.47
2022-12-01T08:03:40.174Z,3.64
2022-12-01T08:06:08.313Z,3.90
2022-12-01T08:08:37.591Z,3.88
2022-12-01T08:11:09.359Z,4.09
2022-12-01T08:13:36.122Z,3.82
2022-12-01T08:16:08.085Z,3.17
2022-12-01T08:18:37.037Z,3.82
2022-12-01T08:21:04.816Z,3.00
2022-12-01T08:23:31.663Z,3.25
2022-12-01T08:26:09.035Z,4.03
2022-12-01T08:28:36.817Z,3.73
2022-12-01T08:31:18.836Z,3.72
2022-12-01T08:33:47.234Z,3.92
2022-12-01T08:36:14.499Z,3.61
2022-12-01T08:38:47.135Z,3.52
2022-12-01T08:41:15.365Z,3.74
2022-12-01T08:44:00.759Z,3.61
2022-12-01T08:46:37.430Z,3.76
2022-12-01T08:49:06.148Z,4.22
2022-12-01T08:51:33.167Z,4.39
2022-12-01T08:54:00.407Z,4.32
2022-12-01T08:56:32.432Z,4.11
2022-12-01T08:58:59.251Z,4.35
2022-12-01T09:01:26.354Z,3.47
2022-12-01T09:04:05.623Z,4.03
2022-12-01T09:06:39.521Z,3.89
2022-12-01T09:09:07.834Z,3.79
2022-12-01T09:11:34.568Z,3.35
2022-12-01T09:14:01.342Z,3.38
2022-12-01T09:16:28.142Z,3.62
2022-12-01T09:18:55.315Z,3.73
2022-12-01T09:21:27.446Z,3.15
2022-12-01T09:23:54.744Z,3.41
2022-12-01T09:26:22.047Z,3.40
2022-12-01T09:28:55.250Z,3.68
2022-12-01T09:31:23.395Z,3.62
2022-12-01T09:34:00.163Z,3.73
2022-12-01T09:36:28.447Z,3.53
2022-12-01T09:38:55.163Z,3.32
2022-12-01T09:41:37.813Z,3.26
2022-12-01T09:44:13.959Z,3.57
2022-12-01T09:46:48.299Z,3.99
2022-12-01T09:49:39.612Z,3.16
2022-12-01T09:52:12.786Z,3.50
2022-12-01T09:54:40.011Z,3.31
2022-12-01T09:57:13.097Z,3.18
2022-12-01T09:59:43.104Z,2.55
2022-12-01T10:02:33.781Z,3.63
2022-12-01T10:05:06.996Z,3.21
2022-12-01T10:07:40.203Z,2.99
2022-12-01T10:10:50.677Z,3.39
2022-12-01T10:13:21.639Z,3.60
2022-12-01T10:15:54.167Z,3.52
2022-12-01T10:18:51.701Z,2.44
2022-12-01T10:21:54.650Z,2.73
2022-12-01T10:24:54.152Z,2.75
2022-12-01T10:27:54.236Z,2.16
2022-12-01T10:30:23.732Z,2.44
2022-12-01T10:33:01.677Z,2.59
2022-12-01T10:35:36.041Z,2.17
2022-12-01T10:38:12.408Z,2.12
2022-12-01T10:40:41.249Z,2.55
2022-12-01T10:43:10.657Z,3.17
2022-12-01T10:45:44.065Z,2.60
2022-12-01T10:48:22.897Z,3.36
2022-12-01T10:51:14.082Z,2.93
2022-12-01T10:53:40.812Z,3.59
2022-12-01T10:56:14.418Z,3.54
2022-12-01T10:59:02.288Z,3.82
2022-12-01T11:01:35.556Z,4.08
2022-12-01T11:04:48.193Z,3.40
2022-12-01T11:07:33.011Z,2.90
2022-12-01T11:10:24.660Z,3.85
2022-12-01T11:13:18.333Z,4.06
2022-12-01T11:16:04.504Z,4.16
2022-12-01T11:18:38.976Z,4.37
2022-12-01T11:21:14.263Z,4.22
2022-12-01T11:23:53.485Z,4.16
2022-12-01T11:26:34.357Z,4.30
2022-12-01T11:29:19.469Z,3.93
2022-12-01T11:31:50.630Z,3.67
2022-12-01T11:34:20.903Z,4.09
2022-12-01T11:36:53.170Z,3.97
2022-12-01T11:39:29.042Z,4.10
2022-12-01T11:42:01.785Z,4.51
2022-12-01T11:47:25.353Z,4.79
2022-12-01T11:49:58.948Z,4.31
2022-12-01T11:52:31.057Z,4.45
2022-12-01T11:55:08.410Z,4.17
2022-12-01T11:57:43.688Z,3.93
2022-12-01T12:00:21.189Z,3.81
2022-12-01T12:03:24.858Z,3.59
2022-12-01T12:06:39.363Z,3.17
2022-12-01T12:09:45.217Z,3.60
2022-12-01T12:12:33.240Z,3.99
2022-12-01T12:15:38.056Z,3.81
2022-12-01T12:18:35.396Z,3.50
2022-12-01T12:21:13.942Z,3.86
2022-12-01T12:24:05.401Z,4.03
2022-12-01T12:27:05.009Z,4.43
2022-12-01T12:29:34.326Z,4.54
2022-12-01T12:32:27.092Z,4.68
2022-12-01T12:35:38.966Z,4.41
2022-12-01T12:38:30.603Z,4.29
2022-12-01T12:41:21.756Z,4.49
2022-12-01T12:43:57.247Z,3.95
2022-12-01T12:46:57.489Z,3.05
2022-12-01T12:49:31.950Z,3.34
2022-12-01T12:52:26.412Z,3.36
2022-12-01T12:55:25.255Z,2.75
2022-12-01T12:58:07.930Z,2.80
2022-12-01T13:00:46.304Z,2.61
2022-12-01T13:03:44.448Z,2.72
2022-12-01T13:06:38.175Z,3.10
2022-12-01T13:09:17.837Z,2.98
2022-12-01T13:12:09.982Z,3.15
2022-12-01T13:14:50.006Z,3.53
2022-12-01T13:17:23.523Z,3.16
2022-12-01T13:19:50.559Z,3.03
2022-12-01T13:22:21.094Z,2.65
2022-12-01T13:24:47.914Z,3.30
2022-12-01T13:27:20.673Z,3.76
2022-12-01T13:29:53.559Z,3.74
2022-12-01T13:32:47.150Z,3.97
2022-12-01T13:35:37.267Z,4.21
2022-12-01T13:38:36.326Z,4.15
2022-12-01T13:41:26.075Z,3.90
2022-12-01T13:44:01.317Z,3.80
2022-12-01T13:47:00.913Z,3.08
2022-12-01T13:49:42.444Z,3.43
2022-12-01T13:52:21.421Z,3.37
2022-12-01T13:55:09.495Z,3.47
2022-12-01T13:57:38.566Z,2.90
2022-12-01T14:00:25.675Z,2.21
2022-12-01T14:03:17.311Z,2.76
2022-12-01T14:05:53.141Z,3.69
2022-12-01T14:08:25.408Z,3.65
2022-12-01T14:11:18.066Z,3.43
2022-12-01T14:14:20.024Z,3.73
2022-12-01T14:17:02.317Z,3.59
2022-12-01T14:19:52.057Z,3.45
2022-12-01T14:22:46.480Z,2.81
2022-12-01T14:25:22.496Z,2.43
2022-12-01T14:27:57.584Z,2.15
2022-12-01T14:30:41.088Z,2.88
2022-12-01T14:33:48.830Z,2.43
2022-12-01T14:36:24.440Z,2.11
2022-12-01T14:39:17.168Z,1.54
2022-12-01T14:41:52.844Z,1.00
2022-12-01T14:44:35.360Z,1.68
2022-12-01T14:47:23.383Z,1.45
2022-12-01T14:50:11.768Z,1.09
2022-12-01T14:52:43.282Z,1.53
2022-12-01T14:55:27.765Z,1.55
2022-12-01T14:58:05.852Z,0.86
2022-12-01T15:00:37.445Z,0.89
2022-12-01T15:03:13.214Z,1.30
2022-12-01T15:05:43.478Z,1.15
2022-12-01T15:08:43.481Z,1.21
2022-12-01T15:11:30.229Z,0.87
2022-12-01T15:13:58.019Z,0.61
2022-12-01T15:16:30.668Z,0.69
2022-12-01T15:18:57.601Z,1.07
2022-12-01T15:21:31.450Z,1.06
2022-12-01T15:24:23.778Z,1.41
2022-12-01T15:27:03.337Z,0.43
2022-12-01T15:29:38.218Z,1.04
2022-12-01T15:32:08.569Z,0.83
2022-12-01T15:34:41.724Z,1.14
2022-12-01T15:37:15.816Z,1.05
2022-12-01T15:39:51.430Z,1.56
2022-12-01T15:42:44.800Z,1.56
2022-12-01T15:45:23.471Z,1.97
2022-12-01T15:47:52.730Z,1.02
2022-12-01T15:50:59.124Z,1.05
2022-12-01T15:53:32.917Z,0.24
2022-12-01T15:56:02.817Z,0.70
2022-12-01T15:58:34.921Z,1.10
2022-12-01T16:01:19.981Z,0.92
2022-12-01T16:04:02.452Z,1.47
2022-12-01T16:06:36.185Z,1.35
2022-12-01T16:09:35.641Z,1.60
2022-12-01T16:12:14.385Z,1.51
2022-12-01T16:15:18.317Z,1.20
2022-12-01T16:17:51.378Z,0.97
2022-12-01T16:20:31.809Z,0.94
2022-12-01T16:23:02.850Z,1.57
2022-12-01T16:25:35.536Z,2.00
2022-12-01T16:28:03.930Z,2.39
2022-12-01T16:30:39.403Z,2.44
2022-12-01T16:33:24.629Z,2.26
2022-12-01T16:35:52.242Z,1.87
2022-12-01T16:38:24.040Z,1.56
2022-12-01T16:41:02.091Z,1.92
2022-12-01T16:43:29.654Z,1.51
2022-12-01T16:46:03.270Z,1.86
2022-12-01T16:48:30.679Z,1.96
2022-12-01T16:51:01.741Z,1.71
2022-12-01T16:53:28.500Z,1.73
2022-12-01T16:56:00.363Z,2.07
2022-12-01T16:58:27.764Z,1.78
2022-12-01T17:00:54.916Z,1.20
2022-12-01T17:03:27.560Z,1.92
2022-12-01T17:05:55.157Z,1.47
2022-12-01T17:08:22.651Z,1.56
2022-12-01T17:10:50.924Z,1.86
2022-12-01T17:13:19.817Z,2.08
2022-12-01T17:15:49.428Z,2.52
2022-12-01T17:18:18.807Z,2.57
2022-12-01T17:20:46.062Z,2.71
2022-12-01T17:23:12.764Z,2.59
2022-12-01T17:25:42.296Z,2.38
2022-12-01T17:28:08.963Z,2.90
2022-12-01T17:30:37.143Z,2.61
2022-12-01T17:33:04.521Z,2.98
2022-12-01T17:35:31.159Z,2.99
2022-12-01T17:37:57.846Z,2.81
2022-12-01T17:40:24.495Z,3.12
2022-12-01T17:42:51.280Z,3.04
2022-12-01T17:45:18.962Z,2.78
2022-12-01T17:47:45.915Z,2.68
2022-12-01T17:50:12.619Z,2.70
2022-12-01T17:52:39.393Z,2.95
2022-12-01T17:55:07.403Z,2.64
2022-12-01T17:57:34.406Z,2.53
2022-12-01T18:00:01.686Z,2.32
2022-12-01T18:02:36.273Z,2.10
2022-12-01T18:05:03.389Z,2.55
2022-12-01T18:07:30.098Z,2.42
2022-12-01T18:09:57.046Z,2.39
2022-12-01T18:12:23.703Z,2.42
2022-12-01T18:14:50.675Z,1.95
2022-12-01T18:17:17.689Z,2.30
2022-12-01T18:19:44.415Z,2.29
2022-12-01T18:22:11.056Z,2.19
2022-12-01T18:24:38.017Z,2.10
2022-12-01T18:27:04.789Z,2.23
2022-12-01T18:29:31.596Z,2.11
2022-12-01T18:32:00.136Z,1.64
2022-12-01T18:34:31.267Z,2.16
2022-12-01T18:36:58.304Z,1.49
2022-12-01T18:39:25.116Z,1.61
2022-12-01T18:41:51.939Z,1.46
2022-12-01T18:44:20.872Z,2.03
2022-12-01T18:46:47.804Z,1.82
2022-12-01T18:49:14.554Z,2.12
2022-12-01T18:51:41.396Z,2.10
2022-12-01T18:54:12.774Z,1.86
2022-12-01T18:56:39.745Z,2.36
2022-12-01T18:59:09.629Z,2.03
2022-12-01T19:01:40.393Z,2.51
2022-12-01T19:04:09.590Z,2.00
2022-12-01T19:06:39.128Z,2.38
2022-12-01T19:09:09.119Z,1.99
2022-12-01T19:11:37.326Z,2.39
2022-12-01T19:14:04.691Z,1.91
2022-12-01T19:16:31.598Z,2.31
2022-12-01T19:18:58.505Z,2.70
2022-12-01T19:21:25.821Z,2.29
2022-12-01T19:23:53.019Z,1.84
2022-12-01T19:26:22.384Z,1.34
2022-12-01T19:28:49.553Z,1.20
2022-12-01T19:31:20.745Z,1.19
2022-12-01T19:33:47.778Z,1.70
2022-12-01T19:36:25.351Z,1.54
2022-12-01T19:38:53.212Z,1.63
2022-12-01T19:41:25.348Z,1.18
2022-12-01T19:43:53.446Z,1.97
2022-12-01T19:46:22.868Z,1.73
2022-12-01T19:48:56.564Z,1.27
2022-12-01T19:51:49.457Z,2.10
2022-12-01T19:54:19.229Z,1.78
2022-12-01T19:56:46.333Z,1.74
2022-12-01T19:59:14.789Z,1.84
2022-12-01T20:01:41.752Z,1.25
2022-12-01T20:04:08.883Z,2.02
2022-12-01T20:06:37.819Z,1.15
2022-12-01T20:09:07.049Z,1.84
2022-12-01T20:11:35.301Z,1.90
2022-12-01T20:14:05.615Z,1.94
2022-12-01T20:16:32.535Z,1.96
2022-12-01T20:19:02.313Z,2.01
2022-12-01T20:21:33.189Z,1.56
2022-12-01T20:24:07.058Z,1.31
2022-12-01T20:26:47.309Z,0.96
2022-12-01T20:29:26.382Z,1.53
2022-12-01T20:31:56.833Z,1.74
2022-12-01T20:34:34.549Z,1.35
2022-12-01T20:37:02.092Z,1.18
2022-12-01T20:39:32.286Z,0.95
2022-12-01T20:41:59.064Z,1.08
2022-12-01T20:44:26.784Z,1.26
2022-12-01T20:46:54.015Z,1.14
2022-12-01T20:49:20.773Z,0.59
2022-12-01T20:51:48.355Z,0.83
2022-12-01T20:54:32.973Z,0.87
2022-12-01T20:56:59.693Z,1.56
2022-12-01T20:59:27.079Z,1.26
2022-12-01T21:01:53.850Z,0.77
2022-12-01T21:04:20.619Z,1.35
2022-12-01T21:06:47.573Z,0.71
2022-12-01T21:09:15.004Z,0.90
2022-12-01T21:12:09.006Z,0.68
2022-12-01T21:14:47.304Z,1.66
2022-12-01T21:17:49.091Z,0.71
2022-12-01T21:20:32.340Z,0.92
2022-12-01T21:23:13.473Z,0.84
2022-12-01T21:25:42.196Z,0.40
2022-12-01T21:28:22.664Z,0.01
2022-12-01T21:31:13.701Z,-0.07
2022-12-01T21:33:42.677Z,0.34
2022-12-01T21:36:19.772Z,1.03
2022-12-01T21:38:50.965Z,1.24
2022-12-01T21:41:27.019Z,1.21
2022-12-01T21:44:07.472Z,0.43
2022-12-01T21:46:35.161Z,0.55
2022-12-01T21:49:02.432Z,0.42
2022-12-01T21:51:30.814Z,0.80
2022-12-01T21:53:57.908Z,0.24
2022-12-01T21:56:31.567Z,-0.25
2022-12-01T21:59:13.349Z,0.53
2022-12-01T22:01:40.612Z,0.32
2022-12-01T22:04:18.538Z,0.22
2022-12-01T22:06:52.716Z,-0.48
2022-12-01T22:09:35.165Z,0.11
2022-12-01T22:12:20.747Z,0.45
2022-12-01T22:14:47.787Z,1.07
2022-12-01T22:17:21.473Z,1.14
2022-12-01T22:20:01.214Z,0.55
2022-12-01T22:22:32.963Z,-0.32
2022-12-01T22:25:22.411Z,0.20
2022-12-01T22:27:49.611Z,-0.01
2022-12-01T22:30:24.338Z,0.66
2022-12-01T22:33:10.877Z,1.31
2022-12-01T22:35:49.628Z,1.68
2022-12-01T22:38:31.611Z,1.53
2022-12-01T22:41:13.703Z,0.85
2022-12-01T22:44:00.606Z,1.10
2022-12-01T22:46:27.332Z,0.97
2022-12-01T22:49:01.494Z,0.46
2022-12-01T22:51:37.798Z,0.45
2022-12-01T22:54:10.173Z,0.93
2022-12-01T22:56:47.990Z,0.97
2022-12-01T22:59:33.862Z,0.72
2022-12-01T23:02:20.615Z,0.18
2022-12-01T23:04:49.730Z,0.47
2022-12-01T23:07:41.303Z,0.85
2022-12-01T23:10:18.015Z,0.49
2022-12-01T23:12:47.363Z,0.45
2022-12-01T23:15:29.137Z,0.50
2022-12-01T23:17:56.611Z,1.15
2022-12-01T23:20:33.176Z,1.19
2022-12-01T23:23:17.048Z,1.17
2022-12-01T23:25:45.897Z,0.50
2022-12-01T23:28:13.660Z,0.96
2022-12-01T23:30:43.301Z,1.15
2022-12-01T23:33:42.593Z,0.95
2022-12-01T23:36:18.814Z,1.10
2022-12-01T23:38:49.030Z,1.17
2022-12-01T23:41:34.759Z,1.83
2022-12-01T23:44:23.951Z,1.71
2022-12-01T23:46:57.592Z,1.41
2022-12-01T23:49:34.636Z,0.71
2022-12-01T23:52:03.315Z,0.90
2022-12-01T23:54:33.939Z,0.42
2022-12-01T23:57:23.706Z,1.06
2022-12-01T23:59:57.524Z,1.18
